Fmt Efes — 9HA2302 — position and weather

sailwx.info

Track history (hours):
 
Tides and Currents Weather Stations Pressure Air Temp Water Temp Dewpoint Dewpoint Depression Visibility Wind Speed Wind Dir Waves Ship Positions

Fmt Efes

Last reported at 2017-Nov-20 00:31 UTC. Time now 2017-Nov-21 06:30 UTC.
Position N 51°25' E 001°24'.

Length 143 m; draft 5.5 m.

Type: Ship. MMSI: 248288000.

Date/timePositionNaut miles runAvg speedWind from/ knotsBaromVisibWave heightAir tempDewpointWater temp
2017-Nov-20 00:31N 51°25' E 001°24'0 0.0
2017-Nov-20 00:01N 51°25' E 001°24'0 0.0
2017-Nov-19 23:30N 51°25' E 001°24'0 0.0
2017-Nov-19 23:00N 51°25' E 001°24'0 0.0
2017-Nov-19 22:30N 51°25' E 001°24'0 0.0
2017-Nov-19 22:01N 51°25' E 001°24'0 0.0
2017-Nov-19 21:30N 51°25' E 001°24'0 0.0
2017-Nov-19 21:01N 51°25' E 001°24'0 0.0
2017-Nov-19 20:31N 51°25' E 001°24'0 0.3
2017-Nov-19 20:00N 51°25' E 001°24'0 0.1
2017-Nov-19 19:30N 51°25' E 001°24'0 0.1
2017-Nov-19 19:00N 51°25' E 001°24'0 0.0
2017-Nov-19 18:30N 51°25' E 001°24'0 0.0
2017-Nov-19 18:00N 51°25' E 001°24'0 0.0
2017-Nov-19 17:30N 51°25' E 001°24'0 0.0
2017-Nov-19 17:01N 51°25' E 001°24'0 0.2
2017-Nov-19 16:30N 51°25' E 001°24'3 6.7
2017-Nov-19 16:00N 51°27' E 001°28'613.0
2017-Nov-19 15:31N 51°29' E 001°18'815.5
2017-Nov-19 15:00N 51°30' E 001°06'714.6
2017-Nov-19 14:30N 51°29' E 000°54'714.6
2017-Nov-19 14:00N 51°30' E 000°43'612.9
2017-Nov-19 13:30N 51°30' E 000°32'611.2
2017-Nov-19 13:01N 51°27' E 000°25'4 8.8
2017-Nov-19 12:31N 51°28' E 000°18'1 2.3
2017-Nov-19 12:01N 51°28' E 000°16'0 0.0
2017-Nov-18 16:54N 51°28' E 000°16'0 0.1
2017-Nov-18 16:31N 51°28' E 000°16'1 1.5
2017-Nov-18 16:01N 51°28' E 000°17'3 5.8
2017-Nov-18 15:31N 51°27' E 000°22'3 6.9
2017-Nov-18 15:00N 51°28' E 000°27'3 6.8
2017-Nov-18 14:30N 51°30' E 000°32'4 8.9
2017-Nov-18 14:00N 51°30' E 000°39'7 9.5
2017-Nov-18 13:16N 51°29' E 000°50'3 9.6
2017-Nov-18 13:00N 51°29' E 000°54'5 9.9
2017-Nov-18 12:30N 51°30' E 001°02'5 9.9
2017-Nov-18 12:00N 51°29' E 001°10'510.9
2017-Nov-18 11:30N 51°29' E 001°18'612.8
2017-Nov-18 11:00N 51°28' E 001°29'4 8.3
2017-Nov-18 10:30N 51°29' E 001°35'612.2
2017-Nov-18 10:00N 51°31' E 001°44'612.2
2017-Nov-18 09:30N 51°33' E 001°54'612.7
2017-Nov-18 09:01N 51°35' E 002°04'713.2
2017-Nov-18 08:30N 51°38' E 002°13'30010.8
2017-Nov-17 04:40N 56°06' W 001°37'312.7
2017-Nov-17 04:28N 56°07' W 001°40'612.5
2017-Nov-17 04:00N 56°09' W 001°50'713.2
2017-Nov-17 03:30N 56°09' W 002°02'713.6
2017-Nov-17 03:00N 56°09' W 002°14'713.7
2017-Nov-17 02:30N 56°09' W 002°26'713.5
2017-Nov-17 02:01N 56°08' W 002°38'713.8
2017-Nov-17 01:30N 56°06' W 002°50'713.2
2017-Nov-17 01:00N 56°03' W 003°01'611.6
2017-Nov-17 00:30N 56°02' W 003°11'612.2
2017-Nov-16 23:59N 56°01' W 003°22'911.2
2017-Nov-16 23:11N 56°02' W 003°38'1 7.9
2017-Nov-16 23:00N 56°02' W 003°41'0 0.9
2017-Nov-16 22:27N 56°02' W 003°41'0 0.3
2017-Nov-16 22:00N 56°02' W 003°42'0 0.0
2017-Nov-15 19:55N 56°02' W 003°41'10 5.9
2017-Nov-15 18:09N 56°00' W 003°23'110.0
2017-Nov-15 18:00N 56°01' W 003°21'611.9
2017-Nov-15 17:30N 56°03' W 003°11'3 5.8
2017-Nov-15 17:01N 56°04' W 003°06'0 0.7
2017-Nov-15 16:31N 56°05' W 003°07'0 0.1
2017-Nov-15 16:01N 56°05' W 003°07'0 0.0
2017-Nov-15 15:31N 56°05' W 003°07'0 0.0
2017-Nov-15 15:01N 56°05' W 003°07'0 0.0
2017-Nov-15 14:31N 56°05' W 003°07'0 0.0
2017-Nov-15 14:00N 56°05' W 003°07'0 0.0
2017-Nov-15 13:30N 56°05' W 003°07'0 0.0
2017-Nov-15 13:01N 56°05' W 003°07'0 0.2
2017-Nov-15 12:31N 56°05' W 003°07'0 0.1
2017-Nov-15 12:01N 56°05' W 003°07'0 0.0
2017-Nov-15 11:31N 56°05' W 003°07'0 0.0
2017-Nov-15 11:01N 56°05' W 003°07'0 0.0
2017-Nov-15 10:30N 56°05' W 003°07'0 0.0
2017-Nov-15 10:00N 56°05' W 003°07'0 0.0
2017-Nov-15 09:31N 56°05' W 003°07'0 0.2
2017-Nov-15 08:59N 56°05' W 003°07'0 0.2
2017-Nov-15 08:29N 56°05' W 003°07'0 0.1
2017-Nov-15 07:59N 56°05' W 003°07'0 0.0
2017-Nov-15 07:29N 56°05' W 003°07'0 0.1
2017-Nov-15 06:59N 56°05' W 003°07'0 0.1
2017-Nov-15 06:29N 56°05' W 003°07'0 0.1
2017-Nov-15 05:59N 56°05' W 003°07'0 0.0
2017-Nov-15 05:29N 56°05' W 003°07'0 0.0
2017-Nov-15 04:59N 56°05' W 003°07'0 0.0
2017-Nov-15 04:29N 56°05' W 003°07'0 0.0
2017-Nov-15 03:59N 56°05' W 003°07'0 0.0
2017-Nov-15 03:29N 56°05' W 003°07'0 0.0
2017-Nov-15 02:59N 56°05' W 003°07'0 0.0
2017-Nov-15 02:29N 56°05' W 003°07'0 0.0
2017-Nov-15 01:59N 56°05' W 003°07'0 0.0
2017-Nov-15 01:29N 56°05' W 003°07'0 0.0
2017-Nov-15 00:59N 56°05' W 003°07'0 0.0
2017-Nov-15 00:29N 56°05' W 003°07'0 0.0
2017-Nov-14 23:59N 56°05' W 003°07'0 0.0
2017-Nov-14 23:29N 56°05' W 003°07'0 0.7
2017-Nov-14 23:00N 56°05' W 003°06'3 6.0
2017-Nov-14 22:30N 56°04' W 003°01'611.6
2017-Nov-14 22:00N 56°06' W 002°51'612.6
2017-Nov-14 21:30N 56°08' W 002°40'612.4
2017-Nov-14 21:01N 56°09' W 002°29'612.2
2017-Nov-14 20:31N 56°09' W 002°18'612.2
2017-Nov-14 20:01N 56°09' W 002°07'612.5
2017-Nov-14 19:31N 56°08' W 001°56'612.5
2017-Nov-14 19:00N 56°06' W 001°45'612.7
2017-Nov-14 18:31N 56°04' W 001°34'325 8.0
2017-Nov-13 01:58N 51°53' E 004°17'0 0.0
2017-Nov-13 01:28N 51°53' E 004°17'0 0.0
2017-Nov-13 00:46N 51°53' E 004°17'0 0.0
2017-Nov-13 00:25N 51°53' E 004°17'0 0.0
2017-Nov-12 23:58N 51°53' E 004°17'0 0.0
2017-Nov-12 23:28N 51°53' E 004°17'0 0.0
2017-Nov-12 22:55N 51°53' E 004°17'0 0.0
2017-Nov-12 22:28N 51°53' E 004°17'0 0.0
2017-Nov-12 21:58N 51°53' E 004°17'0 0.0
2017-Nov-12 21:25N 51°53' E 004°17'0 0.0
2017-Nov-12 20:55N 51°53' E 004°17'0 0.0
2017-Nov-12 20:28N 51°53' E 004°17'0 0.0
2017-Nov-12 19:58N 51°53' E 004°17'0 0.0
2017-Nov-12 19:25N 51°53' E 004°17'0 0.0
2017-Nov-12 18:58N 51°53' E 004°17'0 0.0
2017-Nov-12 18:22N 51°53' E 004°17'0 0.0
2017-Nov-12 17:55N 51°53' E 004°17'0 0.0
2017-Nov-12 17:28N 51°53' E 004°17'0 0.0
2017-Nov-12 16:58N 51°53' E 004°17'0 0.0
2017-Nov-12 16:25N 51°53' E 004°17'0 0.0
2017-Nov-12 16:00N 51°53' E 004°17'  
Track history (hours):
 
Tides and Currents Weather Stations Pressure Air Temp Water Temp Dewpoint Dewpoint Depression Visibility Wind Speed Wind Dir Waves Ship Positions

Fmt Efes

Last reported at 2017-Nov-20 00:31 UTC. Time now 2017-Nov-21 06:30 UTC.
Position N 51°25' E 001°24'.

Length 143 m; draft 5.5 m.

Type: Ship. MMSI: 248288000.

Date/timePositionNaut miles runAvg speedWind from/ knotsBaromVisibWave heightAir tempDewpointWater temp
2017-Nov-20 00:31N 51°25' E 001°24'0 0.0
2017-Nov-20 00:01N 51°25' E 001°24'0 0.0
2017-Nov-19 23:30N 51°25' E 001°24'0 0.0
2017-Nov-19 23:00N 51°25' E 001°24'0 0.0
2017-Nov-19 22:30N 51°25' E 001°24'0 0.0
2017-Nov-19 22:01N 51°25' E 001°24'0 0.0
2017-Nov-19 21:30N 51°25' E 001°24'0 0.0
2017-Nov-19 21:01N 51°25' E 001°24'0 0.0
2017-Nov-19 20:31N 51°25' E 001°24'0 0.3
2017-Nov-19 20:00N 51°25' E 001°24'0 0.1
2017-Nov-19 19:30N 51°25' E 001°24'0 0.1
2017-Nov-19 19:00N 51°25' E 001°24'0 0.0
2017-Nov-19 18:30N 51°25' E 001°24'0 0.0
2017-Nov-19 18:00N 51°25' E 001°24'0 0.0
2017-Nov-19 17:30N 51°25' E 001°24'0 0.0
2017-Nov-19 17:01N 51°25' E 001°24'0 0.2
2017-Nov-19 16:30N 51°25' E 001°24'3 6.7
2017-Nov-19 16:00N 51°27' E 001°28'613.0
2017-Nov-19 15:31N 51°29' E 001°18'815.5
2017-Nov-19 15:00N 51°30' E 001°06'714.6
2017-Nov-19 14:30N 51°29' E 000°54'714.6
2017-Nov-19 14:00N 51°30' E 000°43'612.9
2017-Nov-19 13:30N 51°30' E 000°32'611.2
2017-Nov-19 13:01N 51°27' E 000°25'4 8.8
2017-Nov-19 12:31N 51°28' E 000°18'1 2.3
2017-Nov-19 12:01N 51°28' E 000°16'0 0.0
2017-Nov-18 16:54N 51°28' E 000°16'0 0.1
2017-Nov-18 16:31N 51°28' E 000°16'1 1.5
2017-Nov-18 16:01N 51°28' E 000°17'3 5.8
2017-Nov-18 15:31N 51°27' E 000°22'3 6.9
2017-Nov-18 15:00N 51°28' E 000°27'3 6.8
2017-Nov-18 14:30N 51°30' E 000°32'4 8.9
2017-Nov-18 14:00N 51°30' E 000°39'7 9.5
2017-Nov-18 13:16N 51°29' E 000°50'3 9.6
2017-Nov-18 13:00N 51°29' E 000°54'5 9.9
2017-Nov-18 12:30N 51°30' E 001°02'5 9.9
2017-Nov-18 12:00N 51°29' E 001°10'510.9
2017-Nov-18 11:30N 51°29' E 001°18'612.8
2017-Nov-18 11:00N 51°28' E 001°29'4 8.3
2017-Nov-18 10:30N 51°29' E 001°35'612.2
2017-Nov-18 10:00N 51°31' E 001°44'612.2
2017-Nov-18 09:30N 51°33' E 001°54'612.7
2017-Nov-18 09:01N 51°35' E 002°04'713.2
2017-Nov-18 08:30N 51°38' E 002°13'30010.8
2017-Nov-17 04:40N 56°06' W 001°37'312.7
2017-Nov-17 04:28N 56°07' W 001°40'612.5
2017-Nov-17 04:00N 56°09' W 001°50'713.2
2017-Nov-17 03:30N 56°09' W 002°02'713.6
2017-Nov-17 03:00N 56°09' W 002°14'713.7
2017-Nov-17 02:30N 56°09' W 002°26'713.5
2017-Nov-17 02:01N 56°08' W 002°38'713.8
2017-Nov-17 01:30N 56°06' W 002°50'713.2
2017-Nov-17 01:00N 56°03' W 003°01'611.6
2017-Nov-17 00:30N 56°02' W 003°11'612.2
2017-Nov-16 23:59N 56°01' W 003°22'911.2
2017-Nov-16 23:11N 56°02' W 003°38'1 7.9
2017-Nov-16 23:00N 56°02' W 003°41'0 0.9
2017-Nov-16 22:27N 56°02' W 003°41'0 0.3
2017-Nov-16 22:00N 56°02' W 003°42'0 0.0
2017-Nov-15 19:55N 56°02' W 003°41'10 5.9
2017-Nov-15 18:09N 56°00' W 003°23'110.0
2017-Nov-15 18:00N 56°01' W 003°21'611.9
2017-Nov-15 17:30N 56°03' W 003°11'3 5.8
2017-Nov-15 17:01N 56°04' W 003°06'0 0.7
2017-Nov-15 16:31N 56°05' W 003°07'0 0.1
2017-Nov-15 16:01N 56°05' W 003°07'0 0.0
2017-Nov-15 15:31N 56°05' W 003°07'0 0.0
2017-Nov-15 15:01N 56°05' W 003°07'0 0.0
2017-Nov-15 14:31N 56°05' W 003°07'0 0.0
2017-Nov-15 14:00N 56°05' W 003°07'0 0.0
2017-Nov-15 13:30N 56°05' W 003°07'0 0.0
2017-Nov-15 13:01N 56°05' W 003°07'0 0.2
2017-Nov-15 12:31N 56°05' W 003°07'0 0.1
2017-Nov-15 12:01N 56°05' W 003°07'0 0.0
2017-Nov-15 11:31N 56°05' W 003°07'0 0.0
2017-Nov-15 11:01N 56°05' W 003°07'0 0.0
2017-Nov-15 10:30N 56°05' W 003°07'0 0.0
2017-Nov-15 10:00N 56°05' W 003°07'0 0.0
2017-Nov-15 09:31N 56°05' W 003°07'0 0.2
2017-Nov-15 08:59N 56°05' W 003°07'0 0.2
2017-Nov-15 08:29N 56°05' W 003°07'0 0.1
2017-Nov-15 07:59N 56°05' W 003°07'0 0.0
2017-Nov-15 07:29N 56°05' W 003°07'0 0.1
2017-Nov-15 06:59N 56°05' W 003°07'0 0.1
2017-Nov-15 06:29N 56°05' W 003°07'0 0.1
2017-Nov-15 05:59N 56°05' W 003°07'0 0.0
2017-Nov-15 05:29N 56°05' W 003°07'0 0.0
2017-Nov-15 04:59N 56°05' W 003°07'0 0.0
2017-Nov-15 04:29N 56°05' W 003°07'0 0.0
2017-Nov-15 03:59N 56°05' W 003°07'0 0.0
2017-Nov-15 03:29N 56°05' W 003°07'0 0.0
2017-Nov-15 02:59N 56°05' W 003°07'0 0.0
2017-Nov-15 02:29N 56°05' W 003°07'0 0.0
2017-Nov-15 01:59N 56°05' W 003°07'0 0.0
2017-Nov-15 01:29N 56°05' W 003°07'0 0.0
2017-Nov-15 00:59N 56°05' W 003°07'0 0.0
2017-Nov-15 00:29N 56°05' W 003°07'0 0.0
2017-Nov-14 23:59N 56°05' W 003°07'0 0.0
2017-Nov-14 23:29N 56°05' W 003°07'0 0.7
2017-Nov-14 23:00N 56°05' W 003°06'3 6.0
2017-Nov-14 22:30N 56°04' W 003°01'611.6
2017-Nov-14 22:00N 56°06' W 002°51'612.6
2017-Nov-14 21:30N 56°08' W 002°40'612.4
2017-Nov-14 21:01N 56°09' W 002°29'612.2
2017-Nov-14 20:31N 56°09' W 002°18'612.2
2017-Nov-14 20:01N 56°09' W 002°07'612.5
2017-Nov-14 19:31N 56°08' W 001°56'612.5
2017-Nov-14 19:00N 56°06' W 001°45'612.7
2017-Nov-14 18:31N 56°04' W 001°34'325 8.0
2017-Nov-13 01:58N 51°53' E 004°17'0 0.0
2017-Nov-13 01:28N 51°53' E 004°17'0 0.0
2017-Nov-13 00:46N 51°53' E 004°17'0 0.0
2017-Nov-13 00:25N 51°53' E 004°17'0 0.0
2017-Nov-12 23:58N 51°53' E 004°17'0 0.0
2017-Nov-12 23:28N 51°53' E 004°17'0 0.0
2017-Nov-12 22:55N 51°53' E 004°17'0 0.0
2017-Nov-12 22:28N 51°53' E 004°17'0 0.0
2017-Nov-12 21:58N 51°53' E 004°17'0 0.0
2017-Nov-12 21:25N 51°53' E 004°17'0 0.0
2017-Nov-12 20:55N 51°53' E 004°17'0 0.0
2017-Nov-12 20:28N 51°53' E 004°17'0 0.0
2017-Nov-12 19:58N 51°53' E 004°17'0 0.0
2017-Nov-12 19:25N 51°53' E 004°17'0 0.0
2017-Nov-12 18:58N 51°53' E 004°17'0 0.0
2017-Nov-12 18:22N 51°53' E 004°17'0 0.0
2017-Nov-12 17:55N 51°53' E 004°17'0 0.0
2017-Nov-12 17:28N 51°53' E 004°17'0 0.0
2017-Nov-12 16:58N 51°53' E 004°17'0 0.0
2017-Nov-12 16:25N 51°53' E 004°17'0 0.0
2017-Nov-12 16:00N 51°53' E 004°17'  

Dump ship's entire track history